PWSweather.com
Personal Weather Stations
Station Observations
ILAZIOPO4
Tetto, PomeziaIT 00040

TettoPomeziaIT 00040

Lat: 41.6674809, Lon: 12.5080234

Elevation: 85

Station Type: Davis Vantage Pro2 Plus

http://pomeziameteo.it

Latest ConditionsUpdated 2:25:05 PM GMT+01:01 Saturday, Mar 25, 2017
Currently Today's Max Today's Min Today's Average
Temperature 65.9°F18.8°C 71.5°F21.9°C 56.0°F13.3°C 61.9°F16.6°C
Dew Point 52.5°F11.4°C 53.2°F11.8°C 48.0°F8.9°C 50.6°F10.3°C
Winds Calm Calm 16.0 mph SSE25.7 kmh SSE - 2.2 mph 3.5 kmh
Wind Gusts 4.0 mph6.4 kmh 20.0 mph32.2 kmh - -
Humidity 62% 79% 48% 67%
Pressure 30.08 in1018.6 mb 30.14 in1020.7 mb 30.08 in1018.6 mb -
Hour Temp Dew Point Humidity Winds Wind Gusts Pressure Precip Precip Rate Daily Precip Total
02:25 PM 65.9°F18.8°C 52.5°F11.4°C 62% Calm Calm 4.0 mph6.4 kmh 30.08 in1018.6 mb 0.00 in0.0 mm 0.00 in0.0 mm 0.00 in0.0 mm
02:20 PM 65.6°F18.7°C 51.7°F10.9°C 61% Calm Calm 8.0 mph12.9 kmh 30.09 in1019.0 mb 0.00 in0.0 mm 0.00 in0.0 mm 0.00 in0.0 mm
02:15 PM 65.7°F18.7°C 51.8°F11.0°C 61% 2.0 mph S3.2 kmh S 7.0 mph11.3 kmh 30.09 in1019.0 mb 0.00 in0.0 mm 0.00 in0.0 mm 0.00 in0.0 mm
02:10 PM 65.7°F18.7°C 51.8°F11.0°C 61% Calm Calm 10.0 mph16.1 kmh 30.09 in1019.0 mb 0.00 in0.0 mm 0.00 in0.0 mm 0.00 in0.0 mm
02:05 PM 66.1°F18.9°C 52.2°F11.2°C 61% Calm Calm 3.0 mph4.8 kmh 30.09 in1019.0 mb 0.00 in0.0 mm 0.00 in0.0 mm 0.00 in0.0 mm
02:00 PM 66.1°F18.9°C 52.2°F11.2°C 61% Calm Calm 7.0 mph11.3 kmh 30.10 in1019.3 mb 0.00 in0.0 mm 0.00 in0.0 mm 0.00 in0.0 mm
01:55 PM 65.9°F18.8°C 52.0°F11.1°C 61% Calm Calm 8.0 mph12.9 kmh 30.10 in1019.3 mb 0.00 in0.0 mm 0.00 in0.0 mm 0.00 in0.0 mm
01:50 PM 65.9°F18.8°C 51.6°F10.9°C 60% Calm Calm 6.0 mph9.7 kmh 30.10 in1019.3 mb 0.00 in0.0 mm 0.00 in0.0 mm 0.00 in0.0 mm
01:45 PM 65.8°F18.8°C 52.8°F11.6°C 63% Calm Calm 8.0 mph12.9 kmh 30.10 in1019.3 mb 0.00 in0.0 mm 0.00 in0.0 mm 0.00 in0.0 mm
01:40 PM 65.7°F18.7°C 52.3°F11.3°C 62% 2.0 mph SSE3.2 kmh SSE 13.0 mph20.9 kmh 30.11 in1019.6 mb 0.00 in0.0 mm 0.00 in0.0 mm 0.00 in0.0 mm
01:35 PM 66.0°F18.9°C 53.0°F11.7°C 63% 4.0 mph S6.4 kmh S 9.0 mph14.5 kmh 30.11 in1019.6 mb 0.00 in0.0 mm 0.00 in0.0 mm 0.00 in0.0 mm
01:30 PM 66.0°F18.9°C 53.0°F11.7°C 63% Calm Calm 13.0 mph20.9 kmh 30.11 in1019.6 mb 0.00 in0.0 mm 0.00 in0.0 mm 0.00 in0.0 mm
01:25 PM 66.7°F19.3°C 53.2°F11.8°C 62% Calm Calm 10.0 mph16.1 kmh 30.11 in1019.6 mb 0.00 in0.0 mm 0.00 in0.0 mm 0.00 in0.0 mm
01:20 PM 66.6°F19.2°C 52.7°F11.5°C 61% 1.0 mph S1.6 kmh S 5.0 mph8.0 kmh 30.12 in1020.0 mb 0.00 in0.0 mm 0.00 in0.0 mm 0.00 in0.0 mm
01:15 PM 66.5°F19.2°C 52.6°F11.4°C 61% Calm Calm 11.0 mph17.7 kmh 30.12 in1020.0 mb 0.00 in0.0 mm 0.00 in0.0 mm 0.00 in0.0 mm
01:10 PM 66.3°F19.1°C 51.5°F10.8°C 59% Calm Calm 13.0 mph20.9 kmh 30.12 in1020.0 mb 0.00 in0.0 mm 0.00 in0.0 mm 0.00 in0.0 mm
01:05 PM 66.4°F19.1°C 51.6°F10.9°C 59% 12.0 mph S19.3 kmh S 14.0 mph22.5 kmh 30.12 in1020.0 mb 0.00 in0.0 mm 0.00 in0.0 mm 0.00 in0.0 mm
01:00 PM 66.9°F19.4°C 52.0°F11.1°C 59% Calm Calm 14.0 mph22.5 kmh 30.12 in1020.0 mb 0.00 in0.0 mm 0.00 in0.0 mm 0.00 in0.0 mm
12:55 PM 66.8°F19.3°C 52.0°F11.1°C 59% 8.0 mph S12.9 kmh S 16.0 mph25.7 kmh 30.12 in1020.0 mb 0.00 in0.0 mm 0.00 in0.0 mm 0.00 in0.0 mm
12:50 PM 66.6°F19.2°C 51.8°F11.0°C 59% 16.0 mph SSE25.7 kmh SSE 16.0 mph25.7 kmh 30.12 in1020.0 mb 0.00 in0.0 mm 0.00 in0.0 mm 0.00 in0.0 mm
12:45 PM 66.6°F19.2°C 51.8°F11.0°C 59% Calm Calm 16.0 mph25.7 kmh 30.13 in1020.3 mb 0.00 in0.0 mm 0.00 in0.0 mm 0.00 in0.0 mm
12:40 PM 66.9°F19.4°C 52.0°F11.1°C 59% 16.0 mph SSE25.7 kmh SSE 16.0 mph25.7 kmh 30.12 in1020.0 mb 0.00 in0.0 mm 0.00 in0.0 mm 0.00 in0.0 mm
12:35 PM 67.3°F19.6°C 51.5°F10.8°C 57% 7.0 mph SE11.3 kmh SE 16.0 mph25.7 kmh 30.12 in1020.0 mb 0.00 in0.0 mm 0.00 in0.0 mm 0.00 in0.0 mm
12:30 PM 68.0°F20.0°C 51.2°F10.7°C 55% 11.0 mph SW17.7 kmh SW 14.0 mph22.5 kmh 30.13 in1020.3 mb 0.00 in0.0 mm 0.00 in0.0 mm 0.00 in0.0 mm
12:25 PM 69.6°F20.9°C 50.1°F10.1°C 50% 9.0 mph SSW14.5 kmh SSW 20.0 mph32.2 kmh 30.12 in1020.0 mb 0.00 in0.0 mm 0.00 in0.0 mm 0.00 in0.0 mm
12:20 PM 71.0°F21.7°C 50.8°F10.4°C 49% 1.0 mph SW1.6 kmh SW 13.0 mph20.9 kmh 30.12 in1020.0 mb 0.00 in0.0 mm 0.00 in0.0 mm 0.00 in0.0 mm
12:15 PM 70.9°F21.6°C 51.3°F10.7°C 50% 1.0 mph SW1.6 kmh SW 11.0 mph17.7 kmh 30.12 in1020.0 mb 0.00 in0.0 mm 0.00 in0.0 mm 0.00 in0.0 mm
12:10 PM 71.1°F21.7°C 50.3°F10.2°C 48% Calm Calm 15.0 mph24.1 kmh 30.12 in1020.0 mb 0.00 in0.0 mm 0.00 in0.0 mm 0.00 in0.0 mm
12:05 PM 71.5°F21.9°C 50.7°F10.4°C 48% 9.0 mph SSW14.5 kmh SSW 9.0 mph14.5 kmh 30.12 in1020.0 mb 0.00 in0.0 mm 0.00 in0.0 mm 0.00 in0.0 mm
12:00 PM 71.1°F21.7°C 51.5°F10.8°C 50% Calm Calm 15.0 mph24.1 kmh 30.12 in1020.0 mb 0.00 in0.0 mm 0.00 in0.0 mm 0.00 in0.0 mm
11:55 AM 71.3°F21.8°C 51.1°F10.6°C 49% 1.0 mph S1.6 kmh S 11.0 mph17.7 kmh 30.12 in1020.0 mb 0.00 in0.0 mm 0.00 in0.0 mm 0.00 in0.0 mm
11:50 AM 71.3°F21.8°C 52.7°F11.5°C 52% 4.0 mph SSE6.4 kmh SSE 9.0 mph14.5 kmh 30.12 in1020.0 mb 0.00 in0.0 mm 0.00 in0.0 mm 0.00 in0.0 mm
11:45 AM 71.1°F21.7°C 53.0°F11.7°C 53% Calm Calm 9.0 mph14.5 kmh 30.12 in1020.0 mb 0.00 in0.0 mm 0.00 in0.0 mm 0.00 in0.0 mm
11:40 AM 70.9°F21.6°C 52.3°F11.3°C 52% Calm Calm 10.0 mph16.1 kmh 30.12 in1020.0 mb 0.00 in0.0 mm 0.00 in0.0 mm 0.00 in0.0 mm
11:35 AM 70.7°F21.5°C 51.1°F10.6°C 50% 8.0 mph SE12.9 kmh SE 12.0 mph19.3 kmh 30.12 in1020.0 mb 0.00 in0.0 mm 0.00 in0.0 mm 0.00 in0.0 mm
11:30 AM 70.7°F21.5°C 52.7°F11.5°C 53% Calm Calm 14.0 mph22.5 kmh 30.12 in1020.0 mb 0.00 in0.0 mm 0.00 in0.0 mm 0.00 in0.0 mm
11:25 AM 70.5°F21.4°C 52.0°F11.1°C 52% 2.0 mph S3.2 kmh S 10.0 mph16.1 kmh 30.12 in1020.0 mb 0.00 in0.0 mm 0.00 in0.0 mm 0.00 in0.0 mm
11:20 AM 70.2°F21.2°C 52.7°F11.5°C 54% 1.0 mph ESE1.6 kmh ESE 13.0 mph20.9 kmh 30.13 in1020.3 mb 0.00 in0.0 mm 0.00 in0.0 mm 0.00 in0.0 mm
11:15 AM 69.7°F20.9°C 52.7°F11.5°C 55% Calm Calm 13.0 mph20.9 kmh 30.13 in1020.3 mb 0.00 in0.0 mm 0.00 in0.0 mm 0.00 in0.0 mm
11:10 AM 69.7°F20.9°C 52.2°F11.2°C 54% 9.0 mph SE14.5 kmh SE 14.0 mph22.5 kmh 30.13 in1020.3 mb 0.00 in0.0 mm 0.00 in0.0 mm 0.00 in0.0 mm
11:05 AM 69.5°F20.8°C 52.1°F11.2°C 54% 13.0 mph SE20.9 kmh SE 15.0 mph24.1 kmh 30.13 in1020.3 mb 0.00 in0.0 mm 0.00 in0.0 mm 0.00 in0.0 mm
11:00 AM 69.3°F20.7°C 51.9°F11.1°C 54% Calm Calm 13.0 mph20.9 kmh 30.13 in1020.3 mb 0.00 in0.0 mm 0.00 in0.0 mm 0.00 in0.0 mm
10:55 AM 69.3°F20.7°C 51.9°F11.1°C 54% 5.0 mph SE8.0 kmh SE 17.0 mph27.4 kmh 30.13 in1020.3 mb 0.00 in0.0 mm 0.00 in0.0 mm 0.00 in0.0 mm
10:50 AM 69.4°F20.8°C 52.5°F11.4°C 55% 15.0 mph SSE24.1 kmh SSE 15.0 mph24.1 kmh 30.13 in1020.3 mb 0.00 in0.0 mm 0.00 in0.0 mm 0.00 in0.0 mm
10:45 AM 68.8°F20.4°C 51.9°F11.1°C 55% 8.0 mph ESE12.9 kmh ESE 15.0 mph24.1 kmh 30.13 in1020.3 mb 0.00 in0.0 mm 0.00 in0.0 mm 0.00 in0.0 mm
10:40 AM 68.9°F20.5°C 51.5°F10.8°C 54% 12.0 mph SSE19.3 kmh SSE 16.0 mph25.7 kmh 30.13 in1020.3 mb 0.00 in0.0 mm 0.00 in0.0 mm 0.00 in0.0 mm
10:35 AM 68.6°F20.3°C 51.7°F10.9°C 55% 10.0 mph E16.1 kmh E 13.0 mph20.9 kmh 30.13 in1020.3 mb 0.00 in0.0 mm 0.00 in0.0 mm 0.00 in0.0 mm
10:30 AM 68.4°F20.2°C 52.0°F11.1°C 56% 8.0 mph SE12.9 kmh SE 14.0 mph22.5 kmh 30.13 in1020.3 mb 0.00 in0.0 mm 0.00 in0.0 mm 0.00 in0.0 mm
10:25 AM 68.2°F20.1°C 51.4°F10.8°C 55% 5.0 mph SE8.0 kmh SE 16.0 mph25.7 kmh 30.13 in1020.3 mb 0.00 in0.0 mm 0.00 in0.0 mm 0.00 in0.0 mm
10:20 AM 68.1°F20.1°C 51.8°F11.0°C 56% 3.0 mph SE4.8 kmh SE 13.0 mph20.9 kmh 30.13 in1020.3 mb 0.00 in0.0 mm 0.00 in0.0 mm 0.00 in0.0 mm
10:15 AM 67.6°F19.8°C 51.8°F11.0°C 57% 1.0 mph ESE1.6 kmh ESE 14.0 mph22.5 kmh 30.14 in1020.7 mb 0.00 in0.0 mm 0.00 in0.0 mm 0.00 in0.0 mm
10:10 AM 67.5°F19.7°C 51.7°F10.9°C 57% 8.0 mph SSE12.9 kmh SSE 13.0 mph20.9 kmh 30.13 in1020.3 mb 0.00 in0.0 mm 0.00 in0.0 mm 0.00 in0.0 mm
10:05 AM 67.7°F19.8°C 51.4°F10.8°C 56% Calm Calm 13.0 mph20.9 kmh 30.13 in1020.3 mb 0.00 in0.0 mm 0.00 in0.0 mm 0.00 in0.0 mm
10:00 AM 67.6°F19.8°C 51.8°F11.0°C 57% Calm Calm 12.0 mph19.3 kmh 30.13 in1020.3 mb 0.00 in0.0 mm 0.00 in0.0 mm 0.00 in0.0 mm
09:55 AM 67.2°F19.6°C 51.4°F10.8°C 57% 3.0 mph S4.8 kmh S 13.0 mph20.9 kmh 30.13 in1020.3 mb 0.00 in0.0 mm 0.00 in0.0 mm 0.00 in0.0 mm
09:50 AM 67.1°F19.5°C 51.3°F10.7°C 57% Calm Calm 14.0 mph22.5 kmh 30.13 in1020.3 mb 0.00 in0.0 mm 0.00 in0.0 mm 0.00 in0.0 mm
09:45 AM 67.1°F19.5°C 51.8°F11.0°C 58% 1.0 mph SE1.6 kmh SE 10.0 mph16.1 kmh 30.13 in1020.3 mb 0.00 in0.0 mm 0.00 in0.0 mm 0.00 in0.0 mm
09:40 AM 66.8°F19.3°C 51.5°F10.8°C 58% 2.0 mph SSE3.2 kmh SSE 12.0 mph19.3 kmh 30.13 in1020.3 mb 0.00 in0.0 mm 0.00 in0.0 mm 0.00 in0.0 mm
09:35 AM 66.6°F19.2°C 51.8°F11.0°C 59% 1.0 mph SSE1.6 kmh SSE 8.0 mph12.9 kmh 30.13 in1020.3 mb 0.00 in0.0 mm 0.00 in0.0 mm 0.00 in0.0 mm
09:30 AM 66.5°F19.2°C 51.7°F10.9°C 59% Calm Calm 9.0 mph14.5 kmh 30.13 in1020.3 mb 0.00 in0.0 mm 0.00 in0.0 mm 0.00 in0.0 mm
09:25 AM 66.4°F19.1°C 51.6°F10.9°C 59% Calm Calm 11.0 mph17.7 kmh 30.13 in1020.3 mb 0.00 in0.0 mm 0.00 in0.0 mm 0.00 in0.0 mm
09:20 AM 65.9°F18.8°C 51.1°F10.6°C 59% 9.0 mph SE14.5 kmh SE 11.0 mph17.7 kmh 30.13 in1020.3 mb 0.00 in0.0 mm 0.00 in0.0 mm 0.00 in0.0 mm
09:15 AM 65.4°F18.6°C 50.6°F10.3°C 59% 5.0 mph SE8.0 kmh SE 15.0 mph24.1 kmh 30.13 in1020.3 mb 0.00 in0.0 mm 0.00 in0.0 mm 0.00 in0.0 mm
09:10 AM 65.5°F18.6°C 50.7°F10.4°C 59% 2.0 mph SSE3.2 kmh SSE 13.0 mph20.9 kmh 30.13 in1020.3 mb 0.00 in0.0 mm 0.00 in0.0 mm 0.00 in0.0 mm
09:05 AM 65.4°F18.6°C 50.2°F10.1°C 58% 9.0 mph SE14.5 kmh SE 15.0 mph24.1 kmh 30.13 in1020.3 mb 0.00 in0.0 mm 0.00 in0.0 mm 0.00 in0.0 mm
09:00 AM 65.4°F18.6°C 50.6°F10.3°C 59% 9.0 mph ESE14.5 kmh ESE 11.0 mph17.7 kmh 30.13 in1020.3 mb 0.00 in0.0 mm 0.00 in0.0 mm 0.00 in0.0 mm
08:55 AM 65.0°F18.3°C 50.3°F10.2°C 59% Calm Calm 10.0 mph16.1 kmh 30.13 in1020.3 mb 0.00 in0.0 mm 0.00 in0.0 mm 0.00 in0.0 mm
08:50 AM 64.7°F18.2°C 50.0°F10.0°C 59% Calm Calm 8.0 mph12.9 kmh 30.13 in1020.3 mb 0.00 in0.0 mm 0.00 in0.0 mm 0.00 in0.0 mm
08:45 AM 64.3°F17.9°C 49.6°F9.8°C 59% Calm Calm 10.0 mph16.1 kmh 30.13 in1020.3 mb 0.00 in0.0 mm 0.00 in0.0 mm 0.00 in0.0 mm
08:40 AM 64.1°F17.8°C 49.9°F9.9°C 60% 8.0 mph ESE12.9 kmh ESE 10.0 mph16.1 kmh 30.13 in1020.3 mb 0.00 in0.0 mm 0.00 in0.0 mm 0.00 in0.0 mm
08:35 AM 63.6°F17.6°C 49.4°F9.7°C 60% Calm Calm 8.0 mph12.9 kmh 30.13 in1020.3 mb 0.00 in0.0 mm 0.00 in0.0 mm 0.00 in0.0 mm
08:30 AM 63.2°F17.3°C 49.9°F9.9°C 62% 4.0 mph SE6.4 kmh SE 8.0 mph12.9 kmh 30.13 in1020.3 mb 0.00 in0.0 mm 0.00 in0.0 mm 0.00 in0.0 mm
08:25 AM 62.8°F17.1°C 49.5°F9.7°C 62% 8.0 mph SE12.9 kmh SE 9.0 mph14.5 kmh 30.13 in1020.3 mb 0.00 in0.0 mm 0.00 in0.0 mm 0.00 in0.0 mm
08:20 AM 62.6°F17.0°C 50.2°F10.1°C 64% 5.0 mph SSE8.0 kmh SSE 9.0 mph14.5 kmh 30.13 in1020.3 mb 0.00 in0.0 mm 0.00 in0.0 mm 0.00 in0.0 mm
08:15 AM 62.2°F16.8°C 50.2°F10.1°C 65% 7.0 mph ESE11.3 kmh ESE 8.0 mph12.9 kmh 30.13 in1020.3 mb 0.00 in0.0 mm 0.00 in0.0 mm 0.00 in0.0 mm
08:10 AM 61.8°F16.6°C 49.9°F9.9°C 65% 5.0 mph SE8.0 kmh SE 9.0 mph14.5 kmh 30.13 in1020.3 mb 0.00 in0.0 mm 0.00 in0.0 mm 0.00 in0.0 mm
08:05 AM 61.4°F16.3°C 49.9°F9.9°C 66% 5.0 mph SE8.0 kmh SE 7.0 mph11.3 kmh 30.13 in1020.3 mb 0.00 in0.0 mm 0.00 in0.0 mm 0.00 in0.0 mm
08:00 AM 61.1°F16.2°C 50.0°F10.0°C 67% 1.0 mph SSE1.6 kmh SSE 5.0 mph8.0 kmh 30.13 in1020.3 mb 0.00 in0.0 mm 0.00 in0.0 mm 0.00 in0.0 mm
07:55 AM 60.7°F15.9°C 50.0°F10.0°C 68% Calm Calm 5.0 mph8.0 kmh 30.13 in1020.3 mb 0.00 in0.0 mm 0.00 in0.0 mm 0.00 in0.0 mm
07:50 AM 60.3°F15.7°C 50.0°F10.0°C 69% Calm Calm 6.0 mph9.7 kmh 30.13 in1020.3 mb 0.00 in0.0 mm 0.00 in0.0 mm 0.00 in0.0 mm
07:45 AM 60.0°F15.6°C 49.7°F9.8°C 69% Calm Calm 4.0 mph6.4 kmh 30.13 in1020.3 mb 0.00 in0.0 mm 0.00 in0.0 mm 0.00 in0.0 mm
07:40 AM 59.7°F15.4°C 49.1°F9.5°C 68% 3.0 mph ESE4.8 kmh ESE 6.0 mph9.7 kmh 30.13 in1020.3 mb 0.00 in0.0 mm 0.00 in0.0 mm 0.00 in0.0 mm
07:35 AM 59.5°F15.3°C 49.3°F9.6°C 69% 3.0 mph SSE4.8 kmh SSE 7.0 mph11.3 kmh 30.13 in1020.3 mb 0.00 in0.0 mm 0.00 in0.0 mm 0.00 in0.0 mm
07:30 AM 59.4°F15.2°C 49.2°F9.6°C 69% 1.0 mph SE1.6 kmh SE 7.0 mph11.3 kmh 30.12 in1020.0 mb 0.00 in0.0 mm 0.00 in0.0 mm 0.00 in0.0 mm
07:25 AM 59.2°F15.1°C 49.0°F9.4°C 69% 4.0 mph SE6.4 kmh SE 4.0 mph6.4 kmh 30.12 in1020.0 mb 0.00 in0.0 mm 0.00 in0.0 mm 0.00 in0.0 mm
07:20 AM 59.1°F15.1°C 48.9°F9.4°C 69% Calm Calm 5.0 mph8.0 kmh 30.12 in1020.0 mb 0.00 in0.0 mm 0.00 in0.0 mm 0.00 in0.0 mm
07:15 AM 58.9°F14.9°C 48.7°F9.3°C 69% 3.0 mph SE4.8 kmh SE 5.0 mph8.0 kmh 30.12 in1020.0 mb 0.00 in0.0 mm 0.00 in0.0 mm 0.00 in0.0 mm
07:10 AM 58.6°F14.8°C 48.8°F9.3°C 70% 4.0 mph SE6.4 kmh SE 6.0 mph9.7 kmh 30.12 in1020.0 mb 0.00 in0.0 mm 0.00 in0.0 mm 0.00 in0.0 mm
07:05 AM 58.1°F14.5°C 48.7°F9.3°C 71% 3.0 mph SE4.8 kmh SE 4.0 mph6.4 kmh 30.12 in1020.0 mb 0.00 in0.0 mm 0.00 in0.0 mm 0.00 in0.0 mm
07:00 AM 57.8°F14.3°C 48.4°F9.1°C 71% 4.0 mph SE6.4 kmh SE 5.0 mph8.0 kmh 30.12 in1020.0 mb 0.00 in0.0 mm 0.00 in0.0 mm 0.00 in0.0 mm
06:55 AM 57.5°F14.2°C 48.1°F8.9°C 71% Calm Calm 5.0 mph8.0 kmh 30.12 in1020.0 mb 0.00 in0.0 mm 0.00 in0.0 mm 0.00 in0.0 mm
06:50 AM 57.5°F14.2°C 48.1°F8.9°C 71% 4.0 mph ESE6.4 kmh ESE 6.0 mph9.7 kmh 30.12 in1020.0 mb 0.00 in0.0 mm 0.00 in0.0 mm 0.00 in0.0 mm
06:45 AM 57.5°F14.2°C 48.1°F8.9°C 71% 4.0 mph SE6.4 kmh SE 6.0 mph9.7 kmh 30.12 in1020.0 mb 0.00 in0.0 mm 0.00 in0.0 mm 0.00 in0.0 mm
06:40 AM 57.4°F14.1°C 48.0°F8.9°C 71% 5.0 mph SE8.0 kmh SE 7.0 mph11.3 kmh 30.11 in1019.6 mb 0.00 in0.0 mm 0.00 in0.0 mm 0.00 in0.0 mm
06:35 AM 57.6°F14.2°C 48.2°F9.0°C 71% 2.0 mph SSE3.2 kmh SSE 4.0 mph6.4 kmh 30.11 in1019.6 mb 0.00 in0.0 mm 0.00 in0.0 mm 0.00 in0.0 mm
06:30 AM 57.9°F14.4°C 48.1°F8.9°C 70% Calm Calm -- 30.11 in1019.6 mb 0.00 in0.0 mm 0.00 in0.0 mm 0.00 in0.0 mm
06:25 AM 58.1°F14.5°C 48.3°F9.1°C 70% Calm Calm -- 30.11 in1019.6 mb 0.00 in0.0 mm 0.00 in0.0 mm 0.00 in0.0 mm
06:20 AM 58.2°F14.6°C 48.4°F9.1°C 70% Calm Calm -- 30.11 in1019.6 mb 0.00 in0.0 mm 0.00 in0.0 mm 0.00 in0.0 mm
06:15 AM 58.1°F14.5°C 48.7°F9.3°C 71% Calm Calm -- 30.11 in1019.6 mb 0.00 in0.0 mm 0.00 in0.0 mm 0.00 in0.0 mm
06:10 AM 57.9°F14.4°C 48.5°F9.2°C 71% Calm Calm -- 30.11 in1019.6 mb 0.00 in0.0 mm 0.00 in0.0 mm 0.00 in0.0 mm
06:05 AM 57.6°F14.2°C 48.6°F9.2°C 72% Calm Calm -- 30.10 in1019.3 mb 0.00 in0.0 mm 0.00 in0.0 mm 0.00 in0.0 mm
06:00 AM 57.5°F14.2°C 48.5°F9.2°C 72% Calm Calm -- 30.11 in1019.6 mb 0.00 in0.0 mm 0.00 in0.0 mm 0.00 in0.0 mm
05:55 AM 57.4°F14.1°C 48.8°F9.3°C 73% Calm Calm -- 30.11 in1019.6 mb 0.00 in0.0 mm 0.00 in0.0 mm 0.00 in0.0 mm
05:50 AM 57.4°F14.1°C 49.1°F9.5°C 74% Calm Calm -- 30.11 in1019.6 mb 0.00 in0.0 mm 0.00 in0.0 mm 0.00 in0.0 mm
05:45 AM 57.3°F14.1°C 49.0°F9.4°C 74% Calm Calm -- 30.10 in1019.3 mb 0.00 in0.0 mm 0.00 in0.0 mm 0.00 in0.0 mm
05:40 AM 57.0°F13.9°C 49.1°F9.5°C 75% Calm Calm -- 30.11 in1019.6 mb 0.00 in0.0 mm 0.00 in0.0 mm 0.00 in0.0 mm
05:35 AM 56.8°F13.8°C 48.9°F9.4°C 75% Calm Calm -- 30.11 in1019.6 mb 0.00 in0.0 mm 0.00 in0.0 mm 0.00 in0.0 mm
05:30 AM 56.7°F13.7°C 49.2°F9.6°C 76% Calm Calm -- 30.11 in1019.6 mb 0.00 in0.0 mm 0.00 in0.0 mm 0.00 in0.0 mm
05:25 AM 56.5°F13.6°C 49.3°F9.6°C 77% Calm Calm -- 30.10 in1019.3 mb 0.00 in0.0 mm 0.00 in0.0 mm 0.00 in0.0 mm
05:20 AM 56.3°F13.5°C 49.1°F9.5°C 77% Calm Calm -- 30.10 in1019.3 mb 0.00 in0.0 mm 0.00 in0.0 mm 0.00 in0.0 mm
05:15 AM 56.4°F13.6°C 49.2°F9.6°C 77% Calm Calm -- 30.10 in1019.3 mb 0.00 in0.0 mm 0.00 in0.0 mm 0.00 in0.0 mm
05:10 AM 56.5°F13.6°C 49.3°F9.6°C 77% Calm Calm -- 30.10 in1019.3 mb 0.00 in0.0 mm 0.00 in0.0 mm 0.00 in0.0 mm
05:05 AM 56.7°F13.7°C 49.5°F9.7°C 77% Calm Calm -- 30.11 in1019.6 mb 0.00 in0.0 mm 0.00 in0.0 mm 0.00 in0.0 mm
05:00 AM 56.8°F13.8°C 49.6°F9.8°C 77% Calm Calm -- 30.11 in1019.6 mb 0.00 in0.0 mm 0.00 in0.0 mm 0.00 in0.0 mm
04:55 AM 56.8°F13.8°C 49.6°F9.8°C 77% Calm Calm -- 30.10 in1019.3 mb 0.00 in0.0 mm 0.00 in0.0 mm 0.00 in0.0 mm
04:50 AM 56.8°F13.8°C 49.6°F9.8°C 77% Calm Calm -- 30.10 in1019.3 mb 0.00 in0.0 mm 0.00 in0.0 mm 0.00 in0.0 mm
04:45 AM 56.9°F13.8°C 49.4°F9.7°C 76% Calm Calm -- 30.10 in1019.3 mb 0.00 in0.0 mm 0.00 in0.0 mm 0.00 in0.0 mm
04:40 AM 57.1°F13.9°C 49.6°F9.8°C 76% Calm Calm -- 30.10 in1019.3 mb 0.00 in0.0 mm 0.00 in0.0 mm 0.00 in0.0 mm
04:35 AM 57.2°F14.0°C 49.3°F9.6°C 75% Calm Calm -- 30.10 in1019.3 mb 0.00 in0.0 mm 0.00 in0.0 mm 0.00 in0.0 mm
04:30 AM 57.4°F14.1°C 49.5°F9.7°C 75% Calm Calm -- 30.10 in1019.3 mb 0.00 in0.0 mm 0.00 in0.0 mm 0.00 in0.0 mm
04:25 AM 57.7°F14.3°C 49.8°F9.9°C 75% Calm Calm -- 30.10 in1019.3 mb 0.00 in0.0 mm 0.00 in0.0 mm 0.00 in0.0 mm
04:20 AM 57.9°F14.4°C 49.6°F9.8°C 74% Calm Calm -- 30.10 in1019.3 mb 0.00 in0.0 mm 0.00 in0.0 mm 0.00 in0.0 mm
04:15 AM 58.0°F14.4°C 49.7°F9.8°C 74% Calm Calm -- 30.10 in1019.3 mb 0.00 in0.0 mm 0.00 in0.0 mm 0.00 in0.0 mm
04:10 AM 58.1°F14.5°C 50.2°F10.1°C 75% Calm Calm -- 30.10 in1019.3 mb 0.00 in0.0 mm 0.00 in0.0 mm 0.00 in0.0 mm
04:05 AM 57.9°F14.4°C 50.0°F10.0°C 75% Calm Calm -- 30.10 in1019.3 mb 0.00 in0.0 mm 0.00 in0.0 mm 0.00 in0.0 mm
04:00 AM 57.6°F14.2°C 50.0°F10.0°C 76% Calm Calm -- 30.10 in1019.3 mb 0.00 in0.0 mm 0.00 in0.0 mm 0.00 in0.0 mm
03:55 AM 57.1°F13.9°C 49.9°F9.9°C 77% Calm Calm -- 30.10 in1019.3 mb 0.00 in0.0 mm 0.00 in0.0 mm 0.00 in0.0 mm
03:50 AM 56.5°F13.6°C 49.7°F9.8°C 78% Calm Calm -- 30.10 in1019.3 mb 0.00 in0.0 mm 0.00 in0.0 mm 0.00 in0.0 mm
03:45 AM 56.0°F13.3°C 49.2°F9.6°C 78% Calm Calm -- 30.10 in1019.3 mb 0.00 in0.0 mm 0.00 in0.0 mm 0.00 in0.0 mm
03:40 AM 56.1°F13.4°C 49.3°F9.6°C 78% Calm Calm -- 30.10 in1019.3 mb 0.00 in0.0 mm 0.00 in0.0 mm 0.00 in0.0 mm
03:35 AM 56.0°F13.3°C 49.2°F9.6°C 78% Calm Calm -- 30.10 in1019.3 mb 0.00 in0.0 mm 0.00 in0.0 mm 0.00 in0.0 mm
03:30 AM 56.0°F13.3°C 49.2°F9.6°C 78% Calm Calm -- 30.10 in1019.3 mb 0.00 in0.0 mm 0.00 in0.0 mm 0.00 in0.0 mm
03:25 AM 56.0°F13.3°C 49.2°F9.6°C 78% Calm Calm -- 30.10 in1019.3 mb 0.00 in0.0 mm 0.00 in0.0 mm 0.00 in0.0 mm
03:20 AM 56.3°F13.5°C 49.5°F9.7°C 78% Calm Calm -- 30.10 in1019.3 mb 0.00 in0.0 mm 0.00 in0.0 mm 0.00 in0.0 mm
03:15 AM 56.4°F13.6°C 49.6°F9.8°C 78% Calm Calm -- 30.10 in1019.3 mb 0.00 in0.0 mm 0.00 in0.0 mm 0.00 in0.0 mm
03:10 AM 56.4°F13.6°C 49.6°F9.8°C 78% Calm Calm -- 30.10 in1019.3 mb 0.00 in0.0 mm 0.00 in0.0 mm 0.00 in0.0 mm
03:05 AM 56.4°F13.6°C 49.6°F9.8°C 78% Calm Calm -- 30.10 in1019.3 mb 0.00 in0.0 mm 0.00 in0.0 mm 0.00 in0.0 mm
03:00 AM 56.4°F13.6°C 49.6°F9.8°C 78% Calm Calm -- 30.10 in1019.3 mb 0.00 in0.0 mm 0.00 in0.0 mm 0.00 in0.0 mm
02:55 AM 56.4°F13.6°C 49.9°F9.9°C 79% Calm Calm -- 30.11 in1019.6 mb 0.00 in0.0 mm 0.00 in0.0 mm 0.00 in0.0 mm
02:50 AM 56.4°F13.6°C 49.9°F9.9°C 79% Calm Calm -- 30.11 in1019.6 mb 0.00 in0.0 mm 0.00 in0.0 mm 0.00 in0.0 mm
02:45 AM 56.5°F13.6°C 50.0°F10.0°C 79% Calm Calm -- 30.11 in1019.6 mb 0.00 in0.0 mm 0.00 in0.0 mm 0.00 in0.0 mm
02:40 AM 56.5°F13.6°C 50.0°F10.0°C 79% Calm Calm -- 30.11 in1019.6 mb 0.00 in0.0 mm 0.00 in0.0 mm 0.00 in0.0 mm
02:35 AM 56.7°F13.7°C 50.2°F10.1°C 79% Calm Calm -- 30.11 in1019.6 mb 0.00 in0.0 mm 0.00 in0.0 mm 0.00 in0.0 mm
02:30 AM 56.9°F13.8°C 50.1°F10.1°C 78% Calm Calm -- 30.11 in1019.6 mb 0.00 in0.0 mm 0.00 in0.0 mm 0.00 in0.0 mm
02:25 AM 57.1°F13.9°C 50.3°F10.2°C 78% Calm Calm -- 30.11 in1019.6 mb 0.00 in0.0 mm 0.00 in0.0 mm 0.00 in0.0 mm
02:20 AM 57.3°F14.1°C 50.4°F10.2°C 78% Calm Calm -- 30.11 in1019.6 mb 0.00 in0.0 mm 0.00 in0.0 mm 0.00 in0.0 mm
02:15 AM 57.5°F14.2°C 50.6°F10.3°C 78% Calm Calm -- 30.11 in1019.6 mb 0.00 in0.0 mm 0.00 in0.0 mm 0.00 in0.0 mm
02:10 AM 57.7°F14.3°C 50.8°F10.4°C 78% Calm Calm 3.0 mph4.8 kmh 30.11 in1019.6 mb 0.00 in0.0 mm 0.00 in0.0 mm 0.00 in0.0 mm
02:05 AM 57.8°F14.3°C 50.9°F10.5°C 78% 2.0 mph NW3.2 kmh NW 3.0 mph4.8 kmh 30.11 in1019.6 mb 0.00 in0.0 mm 0.00 in0.0 mm 0.00 in0.0 mm
02:00 AM 58.1°F14.5°C 50.9°F10.5°C 77% Calm Calm -- 30.11 in1019.6 mb 0.00 in0.0 mm 0.00 in0.0 mm 0.00 in0.0 mm
01:55 AM 58.5°F14.7°C 51.3°F10.7°C 77% Calm Calm 4.0 mph6.4 kmh 30.11 in1019.6 mb 0.00 in0.0 mm 0.00 in0.0 mm 0.00 in0.0 mm
01:50 AM 58.7°F14.8°C 51.5°F10.8°C 77% 2.0 mph NW3.2 kmh NW 3.0 mph4.8 kmh 30.11 in1019.6 mb 0.00 in0.0 mm 0.00 in0.0 mm 0.00 in0.0 mm
01:45 AM 58.8°F14.9°C 51.6°F10.9°C 77% 1.0 mph NNW1.6 kmh NNW 4.0 mph6.4 kmh 30.11 in1019.6 mb 0.00 in0.0 mm 0.00 in0.0 mm 0.00 in0.0 mm
01:40 AM 58.7°F14.8°C 51.5°F10.8°C 77% 1.0 mph NW1.6 kmh NW 4.0 mph6.4 kmh 30.11 in1019.6 mb 0.00 in0.0 mm 0.00 in0.0 mm 0.00 in0.0 mm
01:35 AM 58.7°F14.8°C 51.5°F10.8°C 77% 2.0 mph NW3.2 kmh NW 6.0 mph9.7 kmh 30.11 in1019.6 mb 0.00 in0.0 mm 0.00 in0.0 mm 0.00 in0.0 mm
01:30 AM 58.8°F14.9°C 51.6°F10.9°C 77% 3.0 mph NNW4.8 kmh NNW 6.0 mph9.7 kmh 30.11 in1019.6 mb 0.00 in0.0 mm 0.00 in0.0 mm 0.00 in0.0 mm
01:25 AM 58.9°F14.9°C 51.6°F10.9°C 77% 3.0 mph NW4.8 kmh NW 6.0 mph9.7 kmh 30.10 in1019.3 mb 0.00 in0.0 mm 0.00 in0.0 mm 0.00 in0.0 mm
01:20 AM 59.0°F15.0°C 51.7°F10.9°C 77% 4.0 mph NW6.4 kmh NW 5.0 mph8.0 kmh 30.11 in1019.6 mb 0.00 in0.0 mm 0.00 in0.0 mm 0.00 in0.0 mm
01:15 AM 58.9°F14.9°C 51.6°F10.9°C 77% 3.0 mph NW4.8 kmh NW 5.0 mph8.0 kmh 30.11 in1019.6 mb 0.00 in0.0 mm 0.00 in0.0 mm 0.00 in0.0 mm
01:10 AM 58.9°F14.9°C 51.6°F10.9°C 77% 4.0 mph NW6.4 kmh NW 4.0 mph6.4 kmh 30.11 in1019.6 mb 0.00 in0.0 mm 0.00 in0.0 mm 0.00 in0.0 mm
01:05 AM 58.9°F14.9°C 51.6°F10.9°C 77% 5.0 mph NW8.0 kmh NW 5.0 mph8.0 kmh 30.11 in1019.6 mb 0.00 in0.0 mm 0.00 in0.0 mm 0.00 in0.0 mm
01:00 AM 58.9°F14.9°C 51.6°F10.9°C 77% 2.0 mph NW3.2 kmh NW 5.0 mph8.0 kmh 30.11 in1019.6 mb 0.00 in0.0 mm 0.00 in0.0 mm 0.00 in0.0 mm
12:55 AM 58.9°F14.9°C 51.6°F10.9°C 77% 3.0 mph NW4.8 kmh NW 4.0 mph6.4 kmh 30.11 in1019.6 mb 0.00 in0.0 mm 0.00 in0.0 mm 0.00 in0.0 mm
12:50 AM 58.7°F14.8°C 51.5°F10.8°C 77% 3.0 mph NW4.8 kmh NW 5.0 mph8.0 kmh 30.11 in1019.6 mb 0.00 in0.0 mm 0.00 in0.0 mm 0.00 in0.0 mm
12:45 AM 58.5°F14.7°C 51.3°F10.7°C 77% 3.0 mph NW4.8 kmh NW 5.0 mph8.0 kmh 30.11 in1019.6 mb 0.00 in0.0 mm 0.00 in0.0 mm 0.00 in0.0 mm
12:40 AM 58.3°F14.6°C 51.1°F10.6°C 77% 3.0 mph NW4.8 kmh NW 2.0 mph3.2 kmh 30.11 in1019.6 mb 0.00 in0.0 mm 0.00 in0.0 mm 0.00 in0.0 mm
12:35 AM 58.2°F14.6°C 51.0°F10.6°C 77% Calm Calm -- 30.11 in1019.6 mb 0.00 in0.0 mm 0.00 in0.0 mm 0.00 in0.0 mm
12:30 AM 58.4°F14.7°C 51.2°F10.7°C 77% Calm Calm 4.0 mph6.4 kmh 30.11 in1019.6 mb 0.00 in0.0 mm 0.00 in0.0 mm 0.00 in0.0 mm
12:25 AM 58.3°F14.6°C 51.1°F10.6°C 77% 3.0 mph NW4.8 kmh NW 4.0 mph6.4 kmh 30.11 in1019.6 mb 0.00 in0.0 mm 0.00 in0.0 mm 0.00 in0.0 mm
12:20 AM 58.2°F14.6°C 51.0°F10.6°C 77% 3.0 mph NNW4.8 kmh NNW 4.0 mph6.4 kmh 30.11 in1019.6 mb 0.00 in0.0 mm 0.00 in0.0 mm 0.00 in0.0 mm
12:15 AM 58.1°F14.5°C 50.9°F10.5°C 77% 3.0 mph NW4.8 kmh NW 3.0 mph4.8 kmh 30.12 in1020.0 mb 0.00 in0.0 mm 0.00 in0.0 mm 0.00 in0.0 mm
12:10 AM 58.0°F14.4°C 50.8°F10.4°C 77% 2.0 mph NW3.2 kmh NW 2.0 mph3.2 kmh 30.12 in1020.0 mb 0.00 in0.0 mm 0.00 in0.0 mm 0.00 in0.0 mm
12:05 AM 58.0°F14.4°C 50.8°F10.4°C 77% Calm Calm -- 30.12 in1020.0 mb 0.00 in0.0 mm 0.00 in0.0 mm 0.00 in0.0 mm
12:00 AM 58.2°F14.6°C 51.0°F10.6°C 77% Calm Calm -- 30.12 in1020.0 mb 0.00 in0.0 mm 0.00 in0.0 mm 0.00 in0.0 mm